Time;durP1;ratioP1;P1;durP2;ratioP2;P2;SDS_P1;SDS_P2;PMS_P1;PMS_P2;Temp;Humidity;BMP_temperature;BMP_pressure;BME280_temperature;BME280_humidity;BME280_pressure;Samples;Min_cycle;Max_cycle;Signal;HPM_P1;HPM_P2
2023/05/24 00:00:11;;;;;;;11.27;9.30;;;20.00;84.60;;;;;;5103102;28;20229;-67
2023/05/24 00:02:43;;;;;;;21.77;9.63;;;19.90;85.00;;;;;;5096063;28;20265;-67
2023/05/24 00:05:10;;;;;;;13.80;8.27;;;19.90;85.60;;;;;;5102886;28;20188;-67
2023/05/24 00:07:37;;;;;;;12.03;8.50;;;19.80;85.60;;;;;;5108725;28;20188;-66
2023/05/24 00:10:05;;;;;;;15.80;9.40;;;19.80;85.60;;;;;;5098732;28;20575;-66
2023/05/24 00:12:32;;;;;;;12.53;9.00;;;19.70;85.90;;;;;;5105299;28;20193;-66
2023/05/24 00:14:59;;;;;;;15.50;8.63;;;19.60;86.20;;;;;;5106255;28;20212;-66
2023/05/24 00:17:29;;;;;;;12.10;8.57;;;19.60;86.30;;;;;;5103273;28;20222;-66
2023/05/24 00:19:56;;;;;;;13.07;8.90;;;19.60;86.60;;;;;;5105129;28;20208;-66
2023/05/24 00:22:23;;;;;;;16.40;10.17;;;19.60;86.50;;;;;;5104940;28;20220;-66
2023/05/24 00:24:51;;;;;;;11.93;8.60;;;19.50;86.40;;;;;;5091244;28;20193;-66
2023/05/24 00:27:18;;;;;;;10.03;9.03;;;19.40;86.80;;;;;;5107063;28;20197;-66
2023/05/24 00:29:45;;;;;;;12.13;9.10;;;19.40;87.10;;;;;;5107325;28;20646;-66
2023/05/24 00:32:12;;;;;;;19.77;9.87;;;19.40;87.40;;;;;;5103554;28;20192;-66
2023/05/24 00:34:39;;;;;;;14.20;9.60;;;19.40;88.30;;;;;;5105735;28;20537;-67
2023/05/24 00:37:07;;;;;;;17.27;10.00;;;19.30;87.30;;;;;;5104870;28;20228;-67
2023/05/24 00:39:34;;;;;;;13.97;10.13;;;19.30;87.50;;;;;;5107355;28;20232;-66
2023/05/24 00:42:01;;;;;;;11.20;9.37;;;19.30;87.90;;;;;;5089993;28;20233;-66
2023/05/24 00:44:29;;;;;;;14.00;9.83;;;19.20;88.30;;;;;;5089594;28;20217;-66
2023/05/24 00:46:56;;;;;;;11.17;10.00;;;19.20;88.30;;;;;;5089910;28;20204;-66
2023/05/24 00:49:23;;;;;;;12.47;9.23;;;19.20;88.40;;;;;;5082446;28;20585;-67
2023/05/24 00:51:51;;;;;;;15.10;10.03;;;19.20;88.60;;;;;;5086591;28;20224;-66
2023/05/24 00:54:19;;;;;;;13.67;9.63;;;19.20;88.70;;;;;;5081973;28;20236;-66
2023/05/24 00:56:47;;;;;;;9.87;8.87;;;19.20;88.90;;;;;;5089905;28;20266;-66
2023/05/24 00:59:15;;;;;;;15.73;10.03;;;19.20;89.10;;;;;;5092393;28;20593;-66
2023/05/24 01:01:45;;;;;;;12.70;10.00;;;19.20;89.30;;;;;;5081140;28;20299;-66
2023/05/24 01:04:13;;;;;;;14.83;10.03;;;19.20;89.30;;;;;;5084077;28;20209;-66
2023/05/24 01:07:12;;;;;;;13.00;9.13;;;19.20;89.00;;;;;;5085241;28;20534;-66
2023/05/24 01:09:48;;;;;;;17.10;10.17;;;19.20;88.90;;;;;;5078323;28;20227;-66
2023/05/24 01:12:43;;;;;;;16.03;9.90;;;19.20;88.90;;;;;;5084368;28;20691;-66
2023/05/24 01:15:19;;;;;;;11.63;10.43;;;19.10;88.90;;;;;;5089347;28;20208;-67
2023/05/24 01:18:00;;;;;;;11.57;10.40;;;19.10;88.70;;;;;;5085694;28;20217;-66
2023/05/24 01:20:31;;;;;;;14.20;10.63;;;19.10;88.70;;;;;;5099957;28;20242;-66
2023/05/24 01:23:09;;;;;;;13.10;10.13;;;19.10;88.90;;;;;;5078174;28;20300;-66
2023/05/24 01:26:02;;;;;;;12.73;10.50;;;19.10;89.10;;;;;;5080056;28;20189;-66
2023/05/24 01:28:32;;;;;;;13.77;10.43;;;19.10;89.40;;;;;;5083616;28;20189;-66
2023/05/24 01:31:00;;;;;;;11.50;10.27;;;19.10;89.60;;;;;;5072134;28;20339;-66
2023/05/24 01:33:27;;;;;;;13.27;11.10;;;19.10;89.80;;;;;;5088875;28;20254;-66
2023/05/24 01:35:55;;;;;;;15.10;10.47;;;19.10;89.80;;;;;;5083202;28;20218;-66
2023/05/24 01:38:22;;;;;;;14.97;9.93;;;19.10;89.90;;;;;;5081385;28;20263;-67
2023/05/24 01:40:57;;;;;;;9.93;8.90;;;19.10;90.00;;;;;;5086548;28;20244;-66
2023/05/24 01:44:12;;;;;;;11.40;9.27;;;19.10;90.00;;;;;;5102038;28;20306;-67
2023/05/24 01:46:39;;;;;;;11.97;10.03;;;19.10;90.10;;;;;;5046410;28;20204;-66
2023/05/24 01:49:24;;;;;;;13.27;9.90;;;19.10;90.00;;;;;;5093832;28;20649;-66
2023/05/24 01:52:03;;;;;;;14.87;11.00;;;19.10;90.10;;;;;;5104543;28;20204;-66
2023/05/24 01:54:36;;;;;;;12.43;11.13;;;19.10;90.10;;;;;;5094054;28;20210;-66
2023/05/24 01:57:07;;;;;;;12.50;11.20;;;19.10;89.90;;;;;;5105552;28;20493;-66
2023/05/24 01:59:37;;;;;;;16.70;11.13;;;19.10;89.80;;;;;;5093825;28;20211;-66
2023/05/24 02:02:04;;;;;;;14.07;11.97;;;19.10;90.00;;;;;;5101129;28;20201;-67
2023/05/24 02:04:31;;;;;;;15.40;12.37;;;19.10;90.30;;;;;;5086954;28;20282;-66
2023/05/24 02:06:59;;;;;;;16.17;11.97;;;19.10;90.10;;;;;;5088514;28;20193;-66
2023/05/24 02:09:26;;;;;;;15.50;11.03;;;19.10;90.00;;;;;;5103000;28;20201;-66
2023/05/24 02:11:53;;;;;;;12.53;11.23;;;19.10;90.00;;;;;;5100858;28;20204;-66
2023/05/24 02:14:20;;;;;;;15.53;12.77;;;19.10;90.20;;;;;;5100306;28;20212;-66
2023/05/24 02:16:49;;;;;;;14.97;11.67;;;19.10;90.30;;;;;;5086242;28;20658;-66
2023/05/24 02:19:18;;;;;;;18.57;12.70;;;19.10;90.30;;;;;;5092420;28;20291;-66
2023/05/24 02:21:45;;;;;;;14.00;12.13;;;19.10;90.40;;;;;;5102055;28;20203;-66
2023/05/24 02:24:12;;;;;;;13.30;11.87;;;19.10;90.40;;;;;;5093255;28;20212;-66
2023/05/24 02:26:39;;;;;;;15.53;12.13;;;19.10;90.30;;;;;;5098535;28;20211;-67
2023/05/24 02:29:06;;;;;;;14.97;13.33;;;19.10;90.20;;;;;;5086891;28;20204;-66
2023/05/24 02:31:33;;;;;;;13.93;12.53;;;19.10;90.20;;;;;;5102773;28;20193;-66
2023/05/24 02:34:01;;;;;;;15.93;14.43;;;19.10;90.30;;;;;;5086502;28;20581;-66
2023/05/24 02:36:28;;;;;;;19.37;13.63;;;19.10;90.40;;;;;;5095386;28;20215;-67
2023/05/24 02:38:55;;;;;;;16.67;14.33;;;19.00;90.40;;;;;;5104224;28;20286;-66
2023/05/24 02:41:22;;;;;;;17.00;14.67;;;19.00;90.40;;;;;;5100493;28;20713;-66
2023/05/24 02:43:49;;;;;;;16.20;14.50;;;19.10;90.40;;;;;;5092504;28;20224;-66
2023/05/24 02:46:16;;;;;;;20.60;15.50;;;19.10;90.40;;;;;;5091954;28;20205;-67
2023/05/24 02:48:43;;;;;;;19.30;15.13;;;19.10;90.40;;;;;;5088009;28;20197;-67
2023/05/24 02:51:10;;;;;;;17.97;15.63;;;19.10;90.30;;;;;;5105320;28;20197;-67
2023/05/24 02:53:37;;;;;;;22.03;16.40;;;19.10;90.20;;;;;;5080981;28;20208;-66
2023/05/24 02:56:06;;;;;;;18.37;16.10;;;19.00;90.20;;;;;;5101194;28;20197;-67
2023/05/24 02:58:39;;;;;;;22.63;16.93;;;19.00;90.30;;;;;;5095808;28;20215;-66
2023/05/24 03:01:07;;;;;;;27.87;17.07;;;19.00;90.50;;;;;;5088731;28;20200;-66
2023/05/24 03:03:34;;;;;;;19.17;15.57;;;19.00;90.60;;;;;;5091003;28;20223;-66
2023/05/24 03:06:05;;;;;;;20.97;15.93;;;19.00;90.60;;;;;;5087496;28;20267;-67
2023/05/24 03:08:33;;;;;;;20.23;15.87;;;18.90;90.60;;;;;;5086824;28;20292;-66
2023/05/24 03:11:00;;;;;;;18.03;15.87;;;18.90;90.60;;;;;;5084876;28;20538;-66
2023/05/24 03:13:27;;;;;;;18.47;16.57;;;18.90;90.70;;;;;;5088793;28;20646;-66
2023/05/24 03:15:55;;;;;;;20.40;15.87;;;19.00;90.70;;;;;;5091343;28;20199;-66
2023/05/24 03:18:22;;;;;;;19.07;16.27;;;19.00;90.70;;;;;;5102693;28;20607;-66
2023/05/24 03:20:50;;;;;;;17.07;15.23;;;19.00;90.70;;;;;;5091336;28;20312;-66
2023/05/24 03:23:17;;;;;;;19.23;16.03;;;19.10;90.80;;;;;;5103426;28;20230;-66
2023/05/24 03:25:44;;;;;;;18.03;16.13;;;19.10;90.80;;;;;;5086582;28;20193;-66
2023/05/24 03:28:13;;;;;;;18.53;16.00;;;19.10;90.80;;;;;;5088608;28;20226;-66
2023/05/24 03:30:42;;;;;;;19.53;15.70;;;19.10;90.70;;;;;;5089397;28;20197;-66
2023/05/24 03:33:10;;;;;;;19.43;15.40;;;19.10;90.70;;;;;;5091194;28;20250;-66
2023/05/24 03:35:37;;;;;;;18.77;14.57;;;19.10;90.70;;;;;;5077795;28;20226;-66
2023/05/24 03:38:04;;;;;;;17.90;15.03;;;19.10;90.70;;;;;;5095856;28;20257;-66
2023/05/24 03:40:33;;;;;;;20.03;16.07;;;19.10;90.50;;;;;;5077760;28;20240;-68
2023/05/24 03:43:12;;;;;;;22.67;16.90;;;19.00;90.40;;;;;;5091589;28;20194;-66
2023/05/24 03:45:46;;;;;;;22.30;15.77;;;19.00;90.50;;;;;;5087119;28;20715;-66
2023/05/24 03:48:14;;;;;;;21.23;15.80;;;19.00;90.50;;;;;;5087908;28;20199;-66
2023/05/24 03:50:41;;;;;;;20.77;16.30;;;19.00;90.40;;;;;;5092984;28;20232;-66
2023/05/24 03:53:10;;;;;;;21.13;17.10;;;19.00;90.50;;;;;;5079988;28;20355;-66
2023/05/24 03:55:37;;;;;;;19.60;17.60;;;19.00;90.60;;;;;;5091481;28;20586;-66
2023/05/24 03:58:04;;;;;;;20.63;17.70;;;19.00;90.60;;;;;;5093759;28;20204;-66
2023/05/24 04:00:31;;;;;;;20.97;18.10;;;19.00;90.50;;;;;;5093857;28;20197;-66
2023/05/24 04:03:00;;;;;;;21.30;17.37;;;19.00;90.60;;;;;;5091988;28;20262;-66
2023/05/24 04:05:28;;;;;;;20.10;17.97;;;19.00;90.60;;;;;;5086887;28;20217;-66
2023/05/24 04:07:56;;;;;;;19.47;17.43;;;19.00;90.70;;;;;;5085735;28;20211;-66
2023/05/24 04:10:23;;;;;;;21.47;17.87;;;19.00;90.70;;;;;;5091227;28;20248;-66
2023/05/24 04:12:50;;;;;;;19.87;17.63;;;19.10;90.70;;;;;;5088030;28;20659;-66
2023/05/24 04:15:17;;;;;;;23.17;17.80;;;19.10;90.80;;;;;;5081180;28;20213;-66
2023/05/24 04:17:45;;;;;;;20.03;16.77;;;19.10;90.70;;;;;;5085921;28;20210;-66
2023/05/24 04:20:14;;;;;;;22.27;19.10;;;19.10;90.70;;;;;;5085523;28;20292;-66
2023/05/24 04:22:41;;;;;;;26.33;18.13;;;19.10;90.70;;;;;;5086160;28;20206;-66
2023/05/24 04:25:08;;;;;;;20.50;17.57;;;19.10;90.70;;;;;;5099031;28;20229;-66
2023/05/24 04:27:36;;;;;;;20.23;17.77;;;19.10;90.80;;;;;;5092844;28;20270;-66
2023/05/24 04:30:04;;;;;;;20.83;18.03;;;19.10;90.80;;;;;;5090808;28;20704;-67
2023/05/24 04:32:31;;;;;;;22.50;17.67;;;19.10;90.80;;;;;;5091532;28;20609;-66
2023/05/24 04:35:01;;;;;;;21.53;18.30;;;19.20;90.90;;;;;;5092151;28;20685;-66
2023/05/24 04:37:30;;;;;;;20.63;18.43;;;19.20;90.90;;;;;;5087969;28;20200;-66
2023/05/24 04:39:57;;;;;;;19.77;17.83;;;19.20;90.90;;;;;;5092227;28;20193;-66
2023/05/24 04:42:26;;;;;;;25.10;18.07;;;19.30;90.90;;;;;;5101936;28;20222;-66
2023/05/24 04:44:53;;;;;;;24.63;19.03;;;19.30;91.00;;;;;;5105895;28;20217;-67
2023/05/24 04:47:19;;;;;;;23.47;18.53;;;19.30;91.00;;;;;;5088898;28;20219;-66
2023/05/24 04:49:47;;;;;;;24.97;18.00;;;19.40;91.00;;;;;;5101621;28;20189;-67
2023/05/24 04:52:14;;;;;;;25.90;18.77;;;19.50;91.00;;;;;;5096388;28;20272;-66
2023/05/24 04:54:40;;;;;;;27.07;18.97;;;19.50;91.00;;;;;;5101043;28;20212;-66
2023/05/24 04:57:07;;;;;;;20.83;18.43;;;19.60;91.00;;;;;;5103488;28;20196;-67
2023/05/24 04:59:35;;;;;;;23.27;17.87;;;19.60;91.00;;;;;;5099404;28;20204;-66
2023/05/24 05:02:02;;;;;;;26.63;17.97;;;19.70;91.00;;;;;;5106275;28;20257;-66
2023/05/24 05:04:29;;;;;;;19.17;17.13;;;19.70;90.90;;;;;;5099672;28;20651;-66
2023/05/24 05:06:56;;;;;;;21.80;19.10;;;19.80;90.90;;;;;;5104496;28;20288;-66
2023/05/24 05:09:23;;;;;;;20.43;17.43;;;19.90;90.80;;;;;;5103015;28;20253;-66
2023/05/24 05:11:50;;;;;;;23.53;18.83;;;19.90;90.80;;;;;;5093151;28;20295;-67
2023/05/24 05:14:17;;;;;;;20.60;17.93;;;20.00;90.70;;;;;;5099186;28;20247;-66
2023/05/24 05:16:45;;;;;;;22.50;17.53;;;20.10;90.50;;;;;;5103620;28;20201;-66
2023/05/24 05:19:12;;;;;;;20.63;18.20;;;20.20;90.40;;;;;;5100858;28;20295;-66
2023/05/24 05:21:39;;;;;;;20.33;18.17;;;20.30;90.40;;;;;;5101285;28;20547;-66
2023/05/24 05:24:06;;;;;;;21.20;19.00;;;20.30;90.30;;;;;;5104971;28;20205;-66
2023/05/24 05:26:34;;;;;;;21.07;18.00;;;20.40;90.20;;;;;;5097752;28;20212;-66
2023/05/24 05:29:01;;;;;;;23.37;19.00;;;20.50;90.10;;;;;;5102667;28;20192;-66
2023/05/24 05:31:28;;;;;;;23.80;18.40;;;20.50;90.00;;;;;;5099832;28;20205;-66
2023/05/24 05:33:55;;;;;;;20.53;18.30;;;20.60;89.80;;;;;;5101291;28;20657;-66
2023/05/24 05:36:22;;;;;;;25.73;18.57;;;20.70;89.50;;;;;;5100847;28;20651;-67
2023/05/24 05:38:49;;;;;;;22.43;17.20;;;20.80;89.20;;;;;;5083439;28;20197;-67
2023/05/24 05:41:16;;;;;;;20.33;17.13;;;20.80;89.20;;;;;;5101101;28;20324;-67
2023/05/24 05:43:43;;;;;;;20.13;17.47;;;20.90;89.00;;;;;;5101204;28;20196;-67
2023/05/24 05:46:12;;;;;;;24.07;17.07;;;21.00;88.80;;;;;;5105270;28;20279;-67
2023/05/24 05:48:39;;;;;;;19.67;17.37;;;21.20;88.70;;;;;;5097527;28;20494;-67
2023/05/24 05:51:06;;;;;;;21.40;16.10;;;21.30;88.40;;;;;;5103195;28;20197;-67
2023/05/24 05:53:33;;;;;;;19.33;16.20;;;21.40;87.90;;;;;;5104498;28;20200;-67
2023/05/24 05:56:00;;;;;;;19.50;15.90;;;21.50;87.40;;;;;;5103461;28;20196;-67
2023/05/24 05:58:27;;;;;;;17.77;15.87;;;21.60;86.90;;;;;;5099725;28;20208;-67
2023/05/24 06:00:54;;;;;;;23.57;17.10;;;21.70;86.40;;;;;;5100853;28;20623;-67
2023/05/24 06:03:21;;;;;;;20.67;16.37;;;21.90;86.10;;;;;;5107451;28;20285;-67
2023/05/24 06:05:49;;;;;;;19.63;15.33;;;21.90;85.50;;;;;;5098282;28;20295;-67
2023/05/24 06:08:15;;;;;;;22.27;15.33;;;22.10;84.20;;;;;;5105090;28;20691;-66
2023/05/24 06:10:43;;;;;;;17.43;14.20;;;22.10;83.90;;;;;;5100863;28;20212;-67
2023/05/24 06:13:10;;;;;;;17.83;14.03;;;22.20;83.80;;;;;;5103440;28;20680;-68
2023/05/24 06:15:37;;;;;;;16.77;15.07;;;22.20;83.60;;;;;;5105040;28;20277;-67
2023/05/24 06:18:04;;;;;;;16.07;14.40;;;22.30;84.20;;;;;;5101451;28;20624;-67
2023/05/24 06:20:31;;;;;;;19.00;13.80;;;22.40;84.20;;;;;;5103122;28;20602;-67
2023/05/24 06:22:59;;;;;;;18.83;13.67;;;22.50;83.40;;;;;;5097302;28;20201;-67
2023/05/24 06:25:29;;;;;;;19.67;13.50;;;22.50;82.30;;;;;;5103909;28;20224;-67
2023/05/24 06:27:56;;;;;;;17.87;12.27;;;22.60;81.50;;;;;;5099514;28;20207;-67
2023/05/24 06:30:24;;;;;;;18.07;13.07;;;22.70;81.20;;;;;;5099838;28;20204;-67
2023/05/24 06:32:51;;;;;;;16.70;12.20;;;22.70;81.80;;;;;;5102294;28;20202;-67
2023/05/24 06:35:19;;;;;;;21.00;13.40;;;22.80;82.30;;;;;;5102639;28;20671;-67
2023/05/24 06:37:46;;;;;;;17.60;13.37;;;23.00;81.80;;;;;;5101170;28;20204;-67
2023/05/24 06:40:13;;;;;;;16.50;12.23;;;23.10;81.90;;;;;;5107129;28;20200;-67
2023/05/24 06:42:40;;;;;;;14.30;12.00;;;23.20;81.30;;;;;;5096426;28;20197;-67
2023/05/24 06:45:08;;;;;;;13.73;12.33;;;23.40;80.40;;;;;;5091215;28;20245;-67
2023/05/24 06:47:35;;;;;;;16.60;12.63;;;23.50;79.20;;;;;;5091531;28;20220;-69
2023/05/24 06:50:03;;;;;;;14.57;12.67;;;23.60;79.20;;;;;;5107557;28;20197;-67
2023/05/24 06:52:30;;;;;;;14.47;12.23;;;23.70;79.40;;;;;;5104013;28;20212;-67
2023/05/24 06:54:57;;;;;;;14.23;12.00;;;23.80;79.20;;;;;;5106771;28;20208;-67
2023/05/24 06:57:25;;;;;;;18.60;11.63;;;24.00;78.40;;;;;;5111239;28;20274;-67
2023/05/24 06:59:52;;;;;;;13.40;12.07;;;24.10;78.10;;;;;;5115096;28;20215;-67
2023/05/24 07:02:25;;;;;;;13.57;11.50;;;24.20;77.90;;;;;;5109188;28;20236;-67
2023/05/24 07:04:52;;;;;;;13.20;11.47;;;24.40;77.20;;;;;;5106083;28;20224;-68
2023/05/24 07:07:20;;;;;;;13.47;12.03;;;24.50;76.90;;;;;;5106629;28;20215;-67
2023/05/24 07:09:47;;;;;;;16.17;12.40;;;24.70;76.60;;;;;;5106521;28;20255;-67
2023/05/24 07:12:14;;;;;;;14.13;12.63;;;24.80;76.30;;;;;;5110031;28;20214;-67
2023/05/24 07:14:41;;;;;;;15.30;12.47;;;25.00;75.60;;;;;;5102996;28;20239;-67
2023/05/24 07:17:08;;;;;;;13.53;11.77;;;25.00;75.20;;;;;;5108399;28;20199;-67
2023/05/24 07:19:36;;;;;;;16.13;12.30;;;25.20;75.10;;;;;;5105641;28;20210;-67
2023/05/24 07:22:03;;;;;;;16.40;12.93;;;25.30;75.30;;;;;;5104559;28;20265;-67
2023/05/24 07:24:30;;;;;;;12.53;11.10;;;25.50;75.50;;;;;;5106510;28;20299;-67
2023/05/24 07:26:57;;;;;;;16.40;10.53;;;25.60;74.70;;;;;;5107475;28;20197;-67
2023/05/24 07:29:24;;;;;;;13.60;11.73;;;25.70;74.50;;;;;;5106866;28;20560;-67
2023/05/24 07:31:54;;;;;;;17.53;14.47;;;25.90;73.30;;;;;;5103994;28;20204;-67
2023/05/24 07:34:22;;;;;;;18.83;13.63;;;26.00;71.70;;;;;;5107972;28;20197;-67
2023/05/24 07:36:49;;;;;;;13.53;12.07;;;26.00;71.80;;;;;;5107877;28;20220;-67
2023/05/24 07:39:16;;;;;;;16.70;12.17;;;26.00;71.40;;;;;;5105296;28;20270;-67
2023/05/24 07:41:44;;;;;;;18.23;13.93;;;26.00;72.10;;;;;;5103564;28;20237;-67
2023/05/24 07:44:13;;;;;;;15.33;12.33;;;26.10;72.20;;;;;;5103741;28;20207;-67
2023/05/24 07:46:40;;;;;;;14.77;13.27;;;26.20;71.40;;;;;;5104116;28;20651;-67
2023/05/24 07:49:07;;;;;;;16.27;14.40;;;26.30;72.00;;;;;;5102688;28;20276;-67
2023/05/24 07:51:35;;;;;;;17.90;14.83;;;26.40;71.10;;;;;;5106209;28;20216;-67
2023/05/24 07:54:02;;;;;;;17.97;14.40;;;26.50;70.60;;;;;;5102499;28;20531;-68
2023/05/24 07:56:30;;;;;;;20.27;14.97;;;26.50;70.50;;;;;;5105755;28;20281;-67
2023/05/24 07:59:04;;;;;;;22.53;16.77;;;26.60;70.70;;;;;;5102481;28;20200;-67
2023/05/24 08:01:33;;;;;;;18.43;16.03;;;26.70;70.20;;;;;;5102355;28;20284;-67
2023/05/24 08:04:02;;;;;;;21.13;17.20;;;26.80;69.40;;;;;;5100465;28;20208;-67
2023/05/24 08:06:31;;;;;;;22.47;20.07;;;26.90;69.30;;;;;;5102851;28;20280;-69
2023/05/24 08:08:59;;;;;;;24.30;18.47;;;26.90;69.70;;;;;;5097722;28;20543;-67
2023/05/24 08:11:26;;;;;;;22.00;17.33;;;26.90;70.40;;;;;;5102797;28;20637;-67
2023/05/24 08:13:53;;;;;;;20.57;17.93;;;27.00;70.90;;;;;;5106041;28;20202;-67
2023/05/24 08:16:20;;;;;;;25.03;19.60;;;27.00;71.20;;;;;;5110279;28;20198;-68
2023/05/24 08:18:47;;;;;;;23.23;19.03;;;27.20;71.40;;;;;;5108050;28;20640;-67
2023/05/24 08:21:14;;;;;;;22.20;19.20;;;27.30;71.30;;;;;;5106770;28;20205;-67
2023/05/24 08:23:41;;;;;;;22.07;18.17;;;27.40;70.50;;;;;;5105795;28;20554;-67
2023/05/24 08:26:08;;;;;;;19.97;17.73;;;27.50;70.20;;;;;;5100495;28;20629;-67
2023/05/24 08:28:36;;;;;;;20.83;18.17;;;27.60;69.60;;;;;;5103531;28;20200;-67
2023/05/24 08:31:03;;;;;;;19.43;16.83;;;27.60;69.80;;;;;;5105419;28;20952;-67
2023/05/24 08:33:30;;;;;;;19.07;17.17;;;27.60;69.30;;;;;;5107771;28;20212;-67
2023/05/24 08:35:58;;;;;;;18.77;16.93;;;27.70;68.90;;;;;;5108233;28;20219;-67
2023/05/24 08:38:25;;;;;;;21.07;16.97;;;27.70;69.00;;;;;;5103694;28;20208;-68
2023/05/24 08:40:52;;;;;;;23.40;17.27;;;27.80;69.30;;;;;;5109133;28;20244;-67
2023/05/24 08:43:20;;;;;;;18.67;16.60;;;27.90;68.60;;;;;;5097673;28;20737;-67
2023/05/24 08:45:48;;;;;;;17.53;15.83;;;28.10;68.70;;;;;;5107206;28;20538;-67
2023/05/24 08:48:16;;;;;;;20.10;16.60;;;28.20;69.10;;;;;;5103955;28;20208;-67
2023/05/24 08:50:45;;;;;;;18.73;16.90;;;28.30;69.50;;;;;;5105181;28;20276;-67
2023/05/24 08:53:13;;;;;;;19.33;17.33;;;28.40;69.20;;;;;;5110494;28;20191;-67
2023/05/24 08:55:42;;;;;;;20.53;17.73;;;28.50;68.60;;;;;;5101484;28;20201;-67
2023/05/24 08:58:10;;;;;;;22.10;17.13;;;28.60;67.20;;;;;;5107793;28;20207;-67
2023/05/24 09:00:37;;;;;;;19.60;17.50;;;28.60;67.50;;;;;;5103629;28;20208;-67
2023/05/24 09:03:05;;;;;;;19.37;17.23;;;28.60;66.60;;;;;;5103484;28;20708;-67
2023/05/24 09:05:33;;;;;;;20.57;18.40;;;28.50;67.90;;;;;;5103437;28;20213;-67
2023/05/24 09:08:01;;;;;;;18.77;16.97;;;28.50;68.90;;;;;;5102635;28;20196;-68
2023/05/24 09:10:31;;;;;;;21.73;18.70;;;28.50;68.00;;;;;;5105479;28;20243;-67
2023/05/24 09:13:18;;;;;;;21.23;18.87;;;28.40;66.00;;;;;;5108903;28;20204;-67
2023/05/24 09:15:45;;;;;;;21.20;19.10;;;28.30;66.70;;;;;;5096789;28;20658;-68
2023/05/24 09:18:12;;;;;;;20.03;18.07;;;28.40;67.70;;;;;;5107317;28;20213;-67
2023/05/24 09:20:39;;;;;;;21.63;19.47;;;28.40;68.10;;;;;;5105436;28;20201;-67
2023/05/24 09:23:08;;;;;;;22.27;20.07;;;28.50;67.90;;;;;;5110205;28;20209;-67
2023/05/24 09:25:35;;;;;;;21.03;18.73;;;28.50;66.60;;;;;;5107181;28;20201;-67
2023/05/24 09:28:08;;;;;;;24.10;20.90;;;28.60;66.00;;;;;;5105161;28;20193;-67
2023/05/24 09:30:36;;;;;;;21.40;19.17;;;28.70;65.20;;;;;;5102900;28;20224;-67
2023/05/24 09:33:05;;;;;;;22.37;18.63;;;28.80;65.50;;;;;;5105796;28;20628;-67
2023/05/24 09:35:33;;;;;;;21.10;18.80;;;29.00;66.40;;;;;;5107635;28;20189;-67
2023/05/24 09:38:00;;;;;;;20.10;17.13;;;29.10;66.80;;;;;;5103610;28;20678;-68
2023/05/24 09:40:28;;;;;;;21.73;17.40;;;29.20;66.60;;;;;;5104967;28;20267;-67
2023/05/24 09:43:07;;;;;;;20.23;18.17;;;29.30;65.30;;;;;;5099588;28;20193;-67
2023/05/24 09:45:48;;;;;;;19.07;17.10;;;29.30;65.40;;;;;;5094706;28;20277;-67
2023/05/24 09:48:16;;;;;;;19.27;16.50;;;29.30;65.80;;;;;;5101852;28;20269;-67
2023/05/24 09:50:46;;;;;;;18.43;16.53;;;29.40;64.70;;;;;;5105640;28;20535;-67
2023/05/24 09:53:17;;;;;;;19.73;17.67;;;29.40;64.40;;;;;;5100377;28;20193;-67
2023/05/24 09:55:45;;;;;;;18.67;16.60;;;29.30;63.10;;;;;;5102782;28;20208;-67
2023/05/24 09:58:12;;;;;;;17.60;15.90;;;29.30;62.60;;;;;;5093785;28;20612;-67
2023/05/24 10:00:40;;;;;;;18.00;14.73;;;29.20;63.80;;;;;;5099934;28;20351;-67
2023/05/24 10:03:11;;;;;;;16.00;14.50;;;29.30;64.80;;;;;;5103678;28;20205;-67
2023/05/24 10:05:44;;;;;;;16.20;14.57;;;29.40;62.70;;;;;;5103350;28;20285;-67
2023/05/24 10:08:13;;;;;;;17.67;14.47;;;29.40;63.10;;;;;;5104715;28;20606;-67
2023/05/24 10:10:41;;;;;;;15.53;13.97;;;29.40;63.60;;;;;;5104219;28;20203;-65
2023/05/24 10:13:09;;;;;;;14.37;12.43;;;29.40;61.90;;;;;;5104278;28;20503;-65
2023/05/24 10:15:36;;;;;;;15.33;13.83;;;29.40;63.40;;;;;;5099014;28;20254;-65
2023/05/24 10:18:07;;;;;;;16.77;15.07;;;29.50;63.60;;;;;;5103138;28;20211;-66
2023/05/24 10:20:39;;;;;;;19.17;14.73;;;29.60;65.10;;;;;;5099340;28;20199;-64
2023/05/24 10:23:09;;;;;;;16.23;14.70;;;29.70;64.80;;;;;;5102297;28;20201;-66
2023/05/24 10:25:40;;;;;;;16.73;15.10;;;29.70;63.60;;;;;;5103749;28;20217;-67
2023/05/24 10:28:11;;;;;;;16.07;14.50;;;29.70;63.20;;;;;;5104491;28;20250;-67
2023/05/24 10:30:47;;;;;;;14.13;12.83;;;29.70;63.00;;;;;;5103826;28;20197;-67
2023/05/24 10:33:17;;;;;;;17.17;14.20;;;29.70;63.70;;;;;;5101490;28;20566;-66
2023/05/24 10:35:45;;;;;;;15.43;13.43;;;29.80;61.80;;;;;;5103406;28;20205;-65
2023/05/24 10:38:12;;;;;;;14.27;12.50;;;29.70;61.70;;;;;;5096975;28;20232;-66
2023/05/24 10:40:42;;;;;;;17.17;12.67;;;29.70;61.80;;;;;;5098701;28;20236;-67
2023/05/24 10:43:09;;;;;;;18.00;12.87;;;29.70;61.90;;;;;;5098426;28;20208;-66
2023/05/24 10:45:38;;;;;;;14.03;12.67;;;29.80;61.30;;;;;;5102580;28;20213;-66
2023/05/24 10:48:12;;;;;;;14.40;13.03;;;29.80;60.80;;;;;;5098589;28;20649;-66
2023/05/24 10:50:40;;;;;;;16.07;12.80;;;29.80;61.00;;;;;;5103644;28;20223;-65
2023/05/24 10:53:14;;;;;;;16.77;14.87;;;29.90;61.70;;;;;;5101190;28;20188;-66
2023/05/24 10:55:58;;;;;;;14.00;12.13;;;29.90;61.50;;;;;;5081392;28;20212;-66
2023/05/24 10:58:58;;;;;;;11.90;10.63;;;29.80;62.50;;;;;;5103699;28;20287;-66
2023/05/24 11:01:31;;;;;;;15.63;12.37;;;29.90;63.80;;;;;;5103059;28;20196;-66
2023/05/24 11:04:14;;;;;;;12.93;10.43;;;30.00;60.90;;;;;;5105204;28;20196;-66
2023/05/24 11:06:56;;;;;;;10.40;9.37;;;30.10;60.60;;;;;;5100059;28;20252;-67
2023/05/24 11:09:26;;;;;;;16.83;10.23;;;30.20;59.70;;;;;;5102549;28;20243;-67
2023/05/24 11:12:08;;;;;;;11.20;10.17;;;30.30;59.50;;;;;;5102202;28;20192;-67
2023/05/24 11:14:41;;;;;;;14.37;11.03;;;30.40;60.30;;;;;;5106324;28;20257;-66
2023/05/24 11:17:08;;;;;;;11.70;10.50;;;30.50;58.30;;;;;;5096839;28;20266;-67
2023/05/24 11:19:37;;;;;;;11.37;9.13;;;30.40;58.00;;;;;;5087053;28;20200;-67
2023/05/24 11:22:07;;;;;;;10.23;8.77;;;30.30;57.50;;;;;;5096225;28;20197;-66
2023/05/24 11:24:35;;;;;;;9.77;7.93;;;30.30;57.90;;;;;;5103132;28;20215;-66
2023/05/24 11:27:02;;;;;;;12.00;7.67;;;30.20;57.50;;;;;;5097772;28;20255;-66
2023/05/24 11:29:29;;;;;;;14.90;7.30;;;30.20;56.20;;;;;;5100098;28;20275;-66
2023/05/24 11:32:03;;;;;;;6.97;6.23;;;30.20;55.50;;;;;;5104422;28;20197;-66
2023/05/24 11:34:32;;;;;;;8.47;7.63;;;30.10;55.80;;;;;;5101340;28;20196;-66
2023/05/24 11:37:00;;;;;;;10.23;6.90;;;30.10;56.80;;;;;;5089574;28;20216;-67
2023/05/24 11:39:32;;;;;;;8.50;7.70;;;30.20;57.30;;;;;;5099855;28;20279;-66
2023/05/24 11:42:01;;;;;;;11.07;8.27;;;30.30;56.80;;;;;;5111278;28;20246;-67
2023/05/24 11:44:30;;;;;;;10.37;7.70;;;30.30;55.50;;;;;;5100502;28;20199;-66
2023/05/24 11:47:01;;;;;;;9.73;6.53;;;30.40;55.70;;;;;;5105301;28;20286;-66
2023/05/24 11:49:29;;;;;;;7.03;6.37;;;30.40;56.20;;;;;;5110150;28;20817;-67
2023/05/24 11:51:57;;;;;;;9.93;7.23;;;30.60;56.20;;;;;;5106439;28;20537;-66
2023/05/24 11:54:26;;;;;;;9.33;7.37;;;30.70;53.00;;;;;;5110036;28;20201;-66
2023/05/24 11:56:54;;;;;;;12.80;8.77;;;30.70;54.60;;;;;;5107364;28;20208;-66
2023/05/24 11:59:26;;;;;;;11.43;6.93;;;30.60;56.30;;;;;;5110480;28;20519;-66
2023/05/24 12:01:59;;;;;;;9.90;7.03;;;30.50;56.30;;;;;;5109139;28;20599;-66
2023/05/24 12:04:30;;;;;;;6.87;6.17;;;30.40;56.50;;;;;;5107584;28;20200;-67
2023/05/24 12:06:59;;;;;;;11.77;6.67;;;30.40;55.30;;;;;;5109923;28;20299;-67
2023/05/24 12:09:27;;;;;;;8.70;6.40;;;30.40;54.40;;;;;;5109449;28;20646;-66
2023/05/24 12:11:54;;;;;;;8.50;6.67;;;30.30;54.30;;;;;;5106107;28;20209;-67
2023/05/24 12:14:30;;;;;;;7.37;6.57;;;30.30;55.40;;;;;;5104729;28;20580;-66
2023/05/24 12:16:57;;;;;;;6.90;6.00;;;30.30;55.90;;;;;;5111113;28;20208;-66
2023/05/24 12:19:28;;;;;;;7.30;6.63;;;30.30;55.30;;;;;;5105442;28;20197;-66
2023/05/24 12:22:06;;;;;;;8.20;7.30;;;30.40;55.20;;;;;;5103148;28;20227;-66
2023/05/24 12:24:34;;;;;;;7.53;6.83;;;30.50;55.00;;;;;;5107606;28;20234;-67
2023/05/24 12:27:06;;;;;;;6.03;5.57;;;30.50;55.10;;;;;;5098786;28;20307;-66
2023/05/24 12:29:39;;;;;;;7.23;6.53;;;30.50;55.50;;;;;;5107185;28;20234;-67
2023/05/24 12:32:12;;;;;;;8.30;7.40;;;30.40;55.20;;;;;;5101605;28;20662;-67
2023/05/24 12:34:42;;;;;;;7.13;6.50;;;30.40;55.40;;;;;;5105648;28;20209;-66
2023/05/24 12:37:11;;;;;;;7.93;6.53;;;30.40;56.80;;;;;;5105076;28;20253;-66
2023/05/24 12:39:41;;;;;;;8.30;7.50;;;30.40;56.20;;;;;;5105373;28;20291;-67